sensor_id;sensor_type;location;lat;lon;timestamp;pressure;altitude;pressure_sealevel;temperature;humidity
27984;BME280;15317;50.360;8.726;2022-11-10T00:03:47;99705.22;;;7.18;100.00
27984;BME280;15317;50.360;8.726;2022-11-10T00:07:49;99708.22;;;7.15;100.00
27984;BME280;15317;50.360;8.726;2022-11-10T00:11:51;99718.41;;;7.11;100.00
27984;BME280;15317;50.360;8.726;2022-11-10T00:15:57;99724.97;;;7.09;100.00
27984;BME280;15317;50.360;8.726;2022-11-10T00:20:17;99736.25;;;7.03;100.00
27984;BME280;15317;50.360;8.726;2022-11-10T00:24:19;99748.44;;;6.97;100.00
27984;BME280;15317;50.360;8.726;2022-11-10T00:28:21;99749.59;;;6.95;100.00
27984;BME280;15317;50.360;8.726;2022-11-10T00:32:24;99755.50;;;6.89;100.00
27984;BME280;15317;50.360;8.726;2022-11-10T00:36:27;99762.13;;;6.85;100.00
27984;BME280;15317;50.360;8.726;2022-11-10T00:40:29;99759.84;;;6.80;100.00
27984;BME280;15317;50.360;8.726;2022-11-10T00:44:31;99772.59;;;6.78;100.00
27984;BME280;15317;50.360;8.726;2022-11-10T00:48:34;99781.78;;;6.75;100.00
27984;BME280;15317;50.360;8.726;2022-11-10T00:52:36;99783.78;;;6.73;100.00
27984;BME280;15317;50.360;8.726;2022-11-10T00:56:38;99790.16;;;6.72;100.00
27984;BME280;15317;50.360;8.726;2022-11-10T01:00:40;99802.81;;;6.72;100.00
27984;BME280;15317;50.360;8.726;2022-11-10T01:04:44;99798.50;;;6.69;100.00
27984;BME280;15317;50.360;8.726;2022-11-10T01:08:46;99803.44;;;6.64;100.00
27984;BME280;15317;50.360;8.726;2022-11-10T01:12:48;99820.88;;;6.60;100.00
27984;BME280;15317;50.360;8.726;2022-11-10T01:16:50;99824.56;;;6.59;100.00
27984;BME280;15317;50.360;8.726;2022-11-10T01:20:54;99827.66;;;6.55;100.00
27984;BME280;15317;50.360;8.726;2022-11-10T01:24:56;99829.59;;;6.53;100.00
27984;BME280;15317;50.360;8.726;2022-11-10T01:28:58;99835.00;;;6.53;100.00
27984;BME280;15317;50.360;8.726;2022-11-10T01:33:00;99835.88;;;6.53;100.00
27984;BME280;15317;50.360;8.726;2022-11-10T01:37:03;99847.88;;;6.49;100.00
27984;BME280;15317;50.360;8.726;2022-11-10T01:41:07;99848.03;;;6.48;100.00
27984;BME280;15317;50.360;8.726;2022-11-10T01:45:42;99849.13;;;6.45;100.00
27984;BME280;15317;50.360;8.726;2022-11-10T01:49:45;99845.69;;;6.43;100.00
27984;BME280;15317;50.360;8.726;2022-11-10T01:53:52;99855.50;;;6.44;100.00
27984;BME280;15317;50.360;8.726;2022-11-10T01:57:55;99855.00;;;6.50;100.00
27984;BME280;15317;50.360;8.726;2022-11-10T02:02:02;99852.19;;;6.52;100.00
27984;BME280;15317;50.360;8.726;2022-11-10T02:06:08;99860.88;;;6.55;100.00
27984;BME280;15317;50.360;8.726;2022-11-10T02:10:16;99864.81;;;6.51;100.00
27984;BME280;15317;50.360;8.726;2022-11-10T02:14:18;99861.63;;;6.46;100.00
27984;BME280;15317;50.360;8.726;2022-11-10T02:18:20;99871.69;;;6.44;100.00
27984;BME280;15317;50.360;8.726;2022-11-10T02:22:24;99858.19;;;6.44;100.00
27984;BME280;15317;50.360;8.726;2022-11-10T02:26:28;99866.28;;;6.44;100.00
27984;BME280;15317;50.360;8.726;2022-11-10T02:30:30;99863.97;;;6.40;100.00
27984;BME280;15317;50.360;8.726;2022-11-10T02:34:33;99871.44;;;6.36;100.00
27984;BME280;15317;50.360;8.726;2022-11-10T02:38:36;99868.03;;;6.34;100.00
27984;BME280;15317;50.360;8.726;2022-11-10T02:42:38;99864.59;;;6.32;100.00
27984;BME280;15317;50.360;8.726;2022-11-10T02:46:40;99869.50;;;6.27;100.00
27984;BME280;15317;50.360;8.726;2022-11-10T02:50:43;99865.31;;;6.23;100.00
27984;BME280;15317;50.360;8.726;2022-11-10T02:54:46;99875.50;;;6.19;100.00
27984;BME280;15317;50.360;8.726;2022-11-10T02:58:48;99876.38;;;6.20;100.00
27984;BME280;15317;50.360;8.726;2022-11-10T03:02:54;99887.38;;;6.17;100.00
27984;BME280;15317;50.360;8.726;2022-11-10T03:06:56;99902.97;;;6.13;100.00
27984;BME280;15317;50.360;8.726;2022-11-10T03:10:59;99897.81;;;6.10;100.00
27984;BME280;15317;50.360;8.726;2022-11-10T03:15:02;99900.03;;;6.05;100.00
27984;BME280;15317;50.360;8.726;2022-11-10T03:19:04;99901.09;;;6.03;100.00
27984;BME280;15317;50.360;8.726;2022-11-10T03:23:06;99913.13;;;5.99;100.00
27984;BME280;15317;50.360;8.726;2022-11-10T03:27:10;99924.88;;;5.98;100.00
27984;BME280;15317;50.360;8.726;2022-11-10T03:31:12;99925.88;;;5.97;100.00
27984;BME280;15317;50.360;8.726;2022-11-10T03:35:14;99936.53;;;5.98;100.00
27984;BME280;15317;50.360;8.726;2022-11-10T03:39:16;99934.94;;;5.95;100.00
27984;BME280;15317;50.360;8.726;2022-11-10T03:43:20;99937.88;;;5.92;100.00
27984;BME280;15317;50.360;8.726;2022-11-10T03:47:22;99947.91;;;5.90;100.00
27984;BME280;15317;50.360;8.726;2022-11-10T03:51:24;99948.78;;;5.91;100.00
27984;BME280;15317;50.360;8.726;2022-11-10T03:55:26;99950.84;;;5.87;100.00
27984;BME280;15317;50.360;8.726;2022-11-10T03:59:29;99954.72;;;5.83;100.00
27984;BME280;15317;50.360;8.726;2022-11-10T04:03:32;99963.91;;;5.81;100.00
27984;BME280;15317;50.360;8.726;2022-11-10T04:07:34;99970.16;;;5.81;100.00
27984;BME280;15317;50.360;8.726;2022-11-10T04:11:53;99971.13;;;5.80;100.00
27984;BME280;15317;50.360;8.726;2022-11-10T04:16:14;99976.50;;;5.80;100.00
27984;BME280;15317;50.360;8.726;2022-11-10T04:20:17;99988.41;;;5.78;100.00
27984;BME280;15317;50.360;8.726;2022-11-10T04:24:19;99993.16;;;5.74;100.00
27984;BME280;15317;50.360;8.726;2022-11-10T04:28:21;100000.53;;;5.72;100.00
27984;BME280;15317;50.360;8.726;2022-11-10T04:32:25;99986.28;;;5.70;100.00
27984;BME280;15317;50.360;8.726;2022-11-10T04:36:28;99990.81;;;5.70;100.00
27984;BME280;15317;50.360;8.726;2022-11-10T04:40:30;99986.50;;;5.67;100.00
27984;BME280;15317;50.360;8.726;2022-11-10T04:44:32;99997.28;;;5.67;100.00
27984;BME280;15317;50.360;8.726;2022-11-10T04:48:36;100003.44;;;5.69;100.00
27984;BME280;15317;50.360;8.726;2022-11-10T04:52:38;100013.25;;;5.70;100.00
27984;BME280;15317;50.360;8.726;2022-11-10T04:56:40;100027.22;;;5.75;100.00
27984;BME280;15317;50.360;8.726;2022-11-10T05:00:42;100023.56;;;5.76;100.00
27984;BME280;15317;50.360;8.726;2022-11-10T05:04:45;100024.19;;;5.80;100.00
27984;BME280;15317;50.360;8.726;2022-11-10T05:08:48;100030.41;;;5.80;100.00
27984;BME280;15317;50.360;8.726;2022-11-10T05:12:52;100039.25;;;5.82;100.00
27984;BME280;15317;50.360;8.726;2022-11-10T05:16:54;100051.78;;;5.83;100.00
27984;BME280;15317;50.360;8.726;2022-11-10T05:20:57;100050.03;;;5.82;100.00
27984;BME280;15317;50.360;8.726;2022-11-10T05:24:59;100066.47;;;5.79;100.00
27984;BME280;15317;50.360;8.726;2022-11-10T05:29:01;100070.13;;;5.78;100.00
27984;BME280;15317;50.360;8.726;2022-11-10T05:33:04;100075.53;;;5.78;100.00
27984;BME280;15317;50.360;8.726;2022-11-10T05:37:07;100078.94;;;5.80;100.00
27984;BME280;15317;50.360;8.726;2022-11-10T05:41:10;100089.72;;;5.80;100.00
27984;BME280;15317;50.360;8.726;2022-11-10T05:45:12;100089.72;;;5.80;100.00
27984;BME280;15317;50.360;8.726;2022-11-10T05:49:15;100095.97;;;5.81;100.00
27984;BME280;15317;50.360;8.726;2022-11-10T05:53:18;100111.28;;;5.80;100.00
27984;BME280;15317;50.360;8.726;2022-11-10T05:57:20;100121.47;;;5.77;100.00
27984;BME280;15317;50.360;8.726;2022-11-10T06:01:23;100122.53;;;5.74;100.00
27984;BME280;15317;50.360;8.726;2022-11-10T06:05:25;100133.66;;;5.70;100.00
27984;BME280;15317;50.360;8.726;2022-11-10T06:09:29;100145.75;;;5.64;100.00
27984;BME280;15317;50.360;8.726;2022-11-10T06:13:31;100160.41;;;5.60;100.00
27984;BME280;15317;50.360;8.726;2022-11-10T06:17:36;100157.09;;;5.56;100.00
27984;BME280;15317;50.360;8.726;2022-11-10T06:21:38;100165.53;;;5.52;100.00
27984;BME280;15317;50.360;8.726;2022-11-10T06:25:42;100174.56;;;5.51;100.00
27984;BME280;15317;50.360;8.726;2022-11-10T06:29:44;100183.63;;;5.50;100.00
27984;BME280;15317;50.360;8.726;2022-11-10T06:33:46;100186.31;;;5.50;100.00
27984;BME280;15317;50.360;8.726;2022-11-10T06:37:59;100196.59;;;5.45;100.00
27984;BME280;15317;50.360;8.726;2022-11-10T06:42:03;100196.59;;;5.45;100.00
27984;BME280;15317;50.360;8.726;2022-11-10T06:46:05;100203.66;;;5.46;100.00
27984;BME280;15317;50.360;8.726;2022-11-10T06:50:08;100210.56;;;5.50;100.00
27984;BME280;15317;50.360;8.726;2022-11-10T06:54:10;100209.81;;;5.48;100.00
27984;BME280;15317;50.360;8.726;2022-11-10T06:58:14;100224.81;;;5.52;100.00
27984;BME280;15317;50.360;8.726;2022-11-10T07:02:16;100239.88;;;5.54;100.00
27984;BME280;15317;50.360;8.726;2022-11-10T07:06:19;100262.63;;;5.63;100.00
27984;BME280;15317;50.360;8.726;2022-11-10T07:10:21;100270.91;;;5.73;100.00
27984;BME280;15317;50.360;8.726;2022-11-10T07:14:24;100285.88;;;5.89;100.00
27984;BME280;15317;50.360;8.726;2022-11-10T07:18:26;100292.13;;;6.03;100.00
27984;BME280;15317;50.360;8.726;2022-11-10T07:22:28;100296.81;;;6.24;100.00
27984;BME280;15317;50.360;8.726;2022-11-10T07:26:30;100310.44;;;6.47;100.00
27984;BME280;15317;50.360;8.726;2022-11-10T07:30:34;100311.97;;;6.86;100.00
27984;BME280;15317;50.360;8.726;2022-11-10T07:34:36;100310.66;;;7.26;100.00
27984;BME280;15317;50.360;8.726;2022-11-10T07:38:38;100324.50;;;7.68;100.00
27984;BME280;15317;50.360;8.726;2022-11-10T07:42:40;100328.44;;;7.97;100.00
27984;BME280;15317;50.360;8.726;2022-11-10T07:46:43;100339.16;;;8.32;100.00
27984;BME280;15317;50.360;8.726;2022-11-10T07:50:45;100341.84;;;8.43;100.00
27984;BME280;15317;50.360;8.726;2022-11-10T07:54:48;100350.31;;;8.50;100.00
27984;BME280;15317;50.360;8.726;2022-11-10T07:58:50;100355.13;;;8.46;100.00
27984;BME280;15317;50.360;8.726;2022-11-10T08:02:53;100359.81;;;8.44;100.00
27984;BME280;15317;50.360;8.726;2022-11-10T08:06:55;100354.59;;;8.63;100.00
27984;BME280;15317;50.360;8.726;2022-11-10T08:10:58;100366.16;;;8.77;100.00
27984;BME280;15317;50.360;8.726;2022-11-10T08:15:00;100366.84;;;9.22;100.00
27984;BME280;15317;50.360;8.726;2022-11-10T08:19:04;100369.00;;;9.80;100.00
27984;BME280;15317;50.360;8.726;2022-11-10T08:23:06;100371.69;;;10.22;100.00
27984;BME280;15317;50.360;8.726;2022-11-10T08:27:08;100375.72;;;10.87;100.00
27984;BME280;15317;50.360;8.726;2022-11-10T08:31:10;100371.75;;;11.20;100.00
27984;BME280;15317;50.360;8.726;2022-11-10T08:35:13;100388.69;;;11.52;100.00
27984;BME280;15317;50.360;8.726;2022-11-10T08:39:15;100382.94;;;11.65;100.00
27984;BME280;15317;50.360;8.726;2022-11-10T08:43:17;100383.03;;;12.02;100.00
27984;BME280;15317;50.360;8.726;2022-11-10T08:47:19;100398.00;;;12.25;99.60
27984;BME280;15317;50.360;8.726;2022-11-10T08:51:23;100409.63;;;12.27;98.12
27984;BME280;15317;50.360;8.726;2022-11-10T08:55:25;100418.41;;;12.21;99.83
27984;BME280;15317;50.360;8.726;2022-11-10T08:59:27;100424.97;;;12.28;98.45
27984;BME280;15317;50.360;8.726;2022-11-10T09:03:29;100422.66;;;12.33;97.29
27984;BME280;15317;50.360;8.726;2022-11-10T09:07:33;100425.59;;;12.77;96.37
27984;BME280;15317;50.360;8.726;2022-11-10T09:11:42;100439.91;;;12.88;96.27
27984;BME280;15317;50.360;8.726;2022-11-10T09:15:44;100447.53;;;13.12;94.22
27984;BME280;15317;50.360;8.726;2022-11-10T09:19:46;100453.59;;;13.51;91.12
27984;BME280;15317;50.360;8.726;2022-11-10T09:23:50;100457.03;;;13.89;88.61
27984;BME280;15317;50.360;8.726;2022-11-10T09:27:52;100463.31;;;14.07;88.70
27984;BME280;15317;50.360;8.726;2022-11-10T09:31:54;100465.88;;;14.26;86.83
27984;BME280;15317;50.360;8.726;2022-11-10T09:35:56;100479.78;;;14.15;86.08
27984;BME280;15317;50.360;8.726;2022-11-10T09:40:01;100493.28;;;14.86;81.64
27984;BME280;15317;50.360;8.726;2022-11-10T09:44:05;100513.59;;;15.59;77.62
27984;BME280;15317;50.360;8.726;2022-11-10T09:48:16;100504.44;;;16.33;72.29
27984;BME280;15317;50.360;8.726;2022-11-10T09:52:20;100521.31;;;16.93;68.66
27984;BME280;15317;50.360;8.726;2022-11-10T09:56:30;100517.66;;;18.10;65.11
27984;BME280;15317;50.360;8.726;2022-11-10T10:00:33;100524.31;;;16.68;67.96
27984;BME280;15317;50.360;8.726;2022-11-10T10:09:11;100509.38;;;14.63;80.71
27984;BME280;15317;50.360;8.726;2022-11-10T10:13:29;100513.13;;;14.01;85.51
27984;BME280;15317;50.360;8.726;2022-11-10T10:17:36;100536.22;;;13.89;87.93
27984;BME280;15317;50.360;8.726;2022-11-10T10:21:52;100533.38;;;13.45;90.91
27984;BME280;15317;50.360;8.726;2022-11-10T10:25:58;100527.09;;;13.07;91.86
27984;BME280;15317;50.360;8.726;2022-11-10T10:30:11;100533.69;;;13.15;94.35
27984;BME280;15317;50.360;8.726;2022-11-10T10:34:15;100518.13;;;13.25;94.71
27984;BME280;15317;50.360;8.726;2022-11-10T10:38:22;100528.03;;;13.26;94.69
27984;BME280;15317;50.360;8.726;2022-11-10T10:42:29;100526.13;;;13.36;95.13
27984;BME280;15317;50.360;8.726;2022-11-10T10:46:42;100514.75;;;13.13;93.62
27984;BME280;15317;50.360;8.726;2022-11-10T10:50:45;100519.47;;;12.74;96.40
27984;BME280;15317;50.360;8.726;2022-11-10T10:54:58;100512.84;;;12.30;100.00
27984;BME280;15317;50.360;8.726;2022-11-10T10:59:02;100523.31;;;12.35;100.00
27984;BME280;15317;50.360;8.726;2022-11-10T11:03:13;100518.63;;;12.64;100.00
27984;BME280;15317;50.360;8.726;2022-11-10T11:07:22;100530.25;;;12.76;100.00
27984;BME280;15317;50.360;8.726;2022-11-10T11:11:26;100526.31;;;12.88;100.00
27984;BME280;15317;50.360;8.726;2022-11-10T11:15:29;100529.97;;;12.69;100.00
27984;BME280;15317;50.360;8.726;2022-11-10T11:19:34;100534.34;;;12.89;100.00
27984;BME280;15317;50.360;8.726;2022-11-10T11:28:06;100538.94;;;12.89;99.81
27984;BME280;15317;50.360;8.726;2022-11-10T11:32:23;100537.13;;;13.07;98.65
27984;BME280;15317;50.360;8.726;2022-11-10T11:36:36;100536.81;;;13.10;99.01
27984;BME280;15317;50.360;8.726;2022-11-10T11:40:46;100525.03;;;13.19;98.06
27984;BME280;15317;50.360;8.726;2022-11-10T11:44:58;100530.47;;;13.29;94.84
27984;BME280;15317;50.360;8.726;2022-11-10T11:53:54;100530.28;;;13.58;93.04
27984;BME280;15317;50.360;8.726;2022-11-10T11:58:16;100538.31;;;13.59;90.81
27984;BME280;15317;50.360;8.726;2022-11-10T12:03:16;100546.31;;;13.43;92.10
27984;BME280;15317;50.360;8.726;2022-11-10T12:07:34;100537.13;;;13.44;90.50
27984;BME280;15317;50.360;8.726;2022-11-10T12:11:56;100541.31;;;13.38;90.11
27984;BME280;15317;50.360;8.726;2022-11-10T12:16:08;100534.69;;;13.41;91.42
27984;BME280;15317;50.360;8.726;2022-11-10T12:20:28;100536.81;;;13.47;94.35
27984;BME280;15317;50.360;8.726;2022-11-10T12:24:50;100536.31;;;13.34;96.18
27984;BME280;15317;50.360;8.726;2022-11-10T12:29:03;100534.97;;;13.38;93.16
27984;BME280;15317;50.360;8.726;2022-11-10T12:33:13;100543.88;;;13.40;94.30
27984;BME280;15317;50.360;8.726;2022-11-10T12:37:20;100549.06;;;13.43;93.79
27984;BME280;15317;50.360;8.726;2022-11-10T12:41:30;100553.28;;;13.28;94.26
27984;BME280;15317;50.360;8.726;2022-11-10T12:45:38;100551.56;;;13.27;95.37
27984;BME280;15317;50.360;8.726;2022-11-10T12:49:50;100552.06;;;13.40;96.47
27984;BME280;15317;50.360;8.726;2022-11-10T12:53:54;100553.78;;;13.41;95.54
27984;BME280;15317;50.360;8.726;2022-11-10T12:57:56;100549.44;;;13.48;95.14
27984;BME280;15317;50.360;8.726;2022-11-10T13:02:03;100556.31;;;13.52;94.63
27984;BME280;15317;50.360;8.726;2022-11-10T13:06:22;100560.22;;;13.50;94.92
27984;BME280;15317;50.360;8.726;2022-11-10T13:10:26;100557.13;;;13.35;94.67
27984;BME280;15317;50.360;8.726;2022-11-10T13:14:29;100563.19;;;13.29;95.35
27984;BME280;15317;50.360;8.726;2022-11-10T13:19:00;100568.09;;;13.25;94.07
27984;BME280;15317;50.360;8.726;2022-11-10T13:23:24;100572.34;;;13.00;96.01
27984;BME280;15317;50.360;8.726;2022-11-10T13:27:49;100574.59;;;13.05;95.98
27984;BME280;15317;50.360;8.726;2022-11-10T13:31:54;100570.88;;;13.16;95.75
27984;BME280;15317;50.360;8.726;2022-11-10T13:35:57;100571.59;;;13.08;95.64
27984;BME280;15317;50.360;8.726;2022-11-10T13:40:27;100560.81;;;13.16;96.33
27984;BME280;15317;50.360;8.726;2022-11-10T13:44:32;100582.06;;;13.22;96.81
27984;BME280;15317;50.360;8.726;2022-11-10T13:53:14;100588.50;;;13.21;97.48
27984;BME280;15317;50.360;8.726;2022-11-10T13:57:26;100586.25;;;13.17;97.17
27984;BME280;15317;50.360;8.726;2022-11-10T14:01:29;100586.72;;;12.83;98.16
27984;BME280;15317;50.360;8.726;2022-11-10T14:06:05;100590.94;;;12.68;99.56
27984;BME280;15317;50.360;8.726;2022-11-10T14:10:15;100587.22;;;12.69;100.00
27984;BME280;15317;50.360;8.726;2022-11-10T14:14:22;100590.22;;;12.66;100.00
27984;BME280;15317;50.360;8.726;2022-11-10T14:18:28;100603.00;;;12.56;100.00
27984;BME280;15317;50.360;8.726;2022-11-10T14:22:40;100603.75;;;12.39;100.00
27984;BME280;15317;50.360;8.726;2022-11-10T14:26:47;100611.91;;;12.29;100.00
27984;BME280;15317;50.360;8.726;2022-11-10T14:30:52;100614.66;;;12.19;100.00
27984;BME280;15317;50.360;8.726;2022-11-10T14:34:54;100609.91;;;12.21;100.00
27984;BME280;15317;50.360;8.726;2022-11-10T14:38:58;100616.38;;;12.20;100.00
27984;BME280;15317;50.360;8.726;2022-11-10T14:43:02;100613.34;;;12.14;100.00
27984;BME280;15317;50.360;8.726;2022-11-10T14:47:25;100623.09;;;12.07;100.00
27984;BME280;15317;50.360;8.726;2022-11-10T14:51:28;100629.09;;;11.91;100.00
27984;BME280;15317;50.360;8.726;2022-11-10T14:55:34;100627.50;;;11.79;100.00
27984;BME280;15317;50.360;8.726;2022-11-10T14:59:38;100630.28;;;11.68;100.00
27984;BME280;15317;50.360;8.726;2022-11-10T15:03:41;100635.72;;;11.58;100.00
27984;BME280;15317;50.360;8.726;2022-11-10T15:07:44;100636.66;;;11.38;100.00
27984;BME280;15317;50.360;8.726;2022-11-10T15:11:48;100631.44;;;11.25;100.00
27984;BME280;15317;50.360;8.726;2022-11-10T15:16:22;100634.22;;;11.14;100.00
27984;BME280;15317;50.360;8.726;2022-11-10T15:20:36;100638.91;;;11.02;100.00
27984;BME280;15317;50.360;8.726;2022-11-10T15:24:40;100637.59;;;10.97;100.00
27984;BME280;15317;50.360;8.726;2022-11-10T15:28:42;100640.97;;;10.89;100.00
27984;BME280;15317;50.360;8.726;2022-11-10T15:32:46;100646.09;;;10.83;100.00
27984;BME280;15317;50.360;8.726;2022-11-10T15:41:29;100639.34;;;10.56;100.00
27984;BME280;15317;50.360;8.726;2022-11-10T15:45:33;100644.81;;;10.45;100.00
27984;BME280;15317;50.360;8.726;2022-11-10T15:49:37;100667.47;;;10.35;100.00
27984;BME280;15317;50.360;8.726;2022-11-10T15:53:40;100660.19;;;10.24;100.00
27984;BME280;15317;50.360;8.726;2022-11-10T15:57:43;100664.91;;;10.11;100.00
27984;BME280;15317;50.360;8.726;2022-11-10T16:01:45;100660.50;;;9.99;100.00
27984;BME280;15317;50.360;8.726;2022-11-10T16:05:48;100652.41;;;9.87;100.00
27984;BME280;15317;50.360;8.726;2022-11-10T16:09:50;100649.56;;;9.78;100.00
27984;BME280;15317;50.360;8.726;2022-11-10T16:13:53;100643.31;;;9.66;100.00
27984;BME280;15317;50.360;8.726;2022-11-10T16:17:56;100642.34;;;9.56;100.00
27984;BME280;15317;50.360;8.726;2022-11-10T16:21:59;100651.94;;;9.49;100.00
27984;BME280;15317;50.360;8.726;2022-11-10T16:26:02;100650.72;;;9.42;100.00
27984;BME280;15317;50.360;8.726;2022-11-10T16:30:11;100658.50;;;9.35;100.00
27984;BME280;15317;50.360;8.726;2022-11-10T16:34:13;100665.66;;;9.36;100.00
27984;BME280;15317;50.360;8.726;2022-11-10T16:38:18;100675.50;;;9.37;100.00
27984;BME280;15317;50.360;8.726;2022-11-10T16:42:22;100674.91;;;9.34;100.00
27984;BME280;15317;50.360;8.726;2022-11-10T16:46:25;100669.84;;;9.40;100.00
27984;BME280;15317;50.360;8.726;2022-11-10T16:50:31;100672.66;;;9.50;100.00
27984;BME280;15317;50.360;8.726;2022-11-10T16:54:35;100679.56;;;9.65;100.00
27984;BME280;15317;50.360;8.726;2022-11-10T16:58:37;100693.09;;;9.76;100.00
27984;BME280;15317;50.360;8.726;2022-11-10T17:02:39;100715.31;;;9.81;100.00
27984;BME280;15317;50.360;8.726;2022-11-10T17:06:41;100717.06;;;9.82;100.00
27984;BME280;15317;50.360;8.726;2022-11-10T17:10:45;100710.88;;;9.80;100.00
27984;BME280;15317;50.360;8.726;2022-11-10T17:14:47;100713.72;;;9.79;100.00
27984;BME280;15317;50.360;8.726;2022-11-10T17:18:50;100710.75;;;9.71;100.00
27984;BME280;15317;50.360;8.726;2022-11-10T17:22:52;100722.84;;;9.78;100.00
27984;BME280;15317;50.360;8.726;2022-11-10T17:26:56;100731.25;;;9.75;100.00
27984;BME280;15317;50.360;8.726;2022-11-10T17:30:58;100731.09;;;9.76;100.00
27984;BME280;15317;50.360;8.726;2022-11-10T17:35:00;100733.09;;;9.74;100.00
27984;BME280;15317;50.360;8.726;2022-11-10T17:39:03;100742.44;;;9.70;100.00
27984;BME280;15317;50.360;8.726;2022-11-10T17:43:09;100750.97;;;9.66;100.00
27984;BME280;15317;50.360;8.726;2022-11-10T17:47:11;100759.50;;;9.61;100.00
27984;BME280;15317;50.360;8.726;2022-11-10T17:51:16;100741.59;;;9.47;100.00
27984;BME280;15317;50.360;8.726;2022-11-10T17:55:20;100739.13;;;9.33;100.00
27984;BME280;15317;50.360;8.726;2022-11-10T17:59:24;100734.78;;;9.20;100.00
27984;BME280;15317;50.360;8.726;2022-11-10T18:03:26;100744.22;;;9.03;100.00
27984;BME280;15317;50.360;8.726;2022-11-10T18:07:28;100742.59;;;8.89;100.00
27984;BME280;15317;50.360;8.726;2022-11-10T18:11:30;100751.66;;;8.77;100.00
27984;BME280;15317;50.360;8.726;2022-11-10T18:15:34;100764.31;;;8.65;100.00
27984;BME280;15317;50.360;8.726;2022-11-10T18:19:36;100771.41;;;8.55;100.00
27984;BME280;15317;50.360;8.726;2022-11-10T18:23:38;100778.50;;;8.45;100.00
27984;BME280;15317;50.360;8.726;2022-11-10T18:27:40;100769.56;;;8.32;100.00
27984;BME280;15317;50.360;8.726;2022-11-10T18:31:43;100781.13;;;8.21;100.00
27984;BME280;15317;50.360;8.726;2022-11-10T18:35:45;100785.38;;;8.13;100.00
27984;BME280;15317;50.360;8.726;2022-11-10T18:39:47;100785.94;;;8.05;100.00
27984;BME280;15317;50.360;8.726;2022-11-10T18:43:49;100792.91;;;7.97;100.00
27984;BME280;15317;50.360;8.726;2022-11-10T18:47:53;100786.31;;;7.88;100.00
27984;BME280;15317;50.360;8.726;2022-11-10T18:52:00;100796.81;;;7.80;100.00
27984;BME280;15317;50.360;8.726;2022-11-10T18:56:03;100800.94;;;7.73;100.00
27984;BME280;15317;50.360;8.726;2022-11-10T19:00:06;100810.47;;;7.66;100.00
27984;BME280;15317;50.360;8.726;2022-11-10T19:04:10;100811.88;;;7.59;100.00
27984;BME280;15317;50.360;8.726;2022-11-10T19:08:12;100818.50;;;7.54;100.00
27984;BME280;15317;50.360;8.726;2022-11-10T19:12:14;100808.88;;;7.50;100.00
27984;BME280;15317;50.360;8.726;2022-11-10T19:16:17;100813.94;;;7.42;100.00
27984;BME280;15317;50.360;8.726;2022-11-10T19:20:21;100816.31;;;7.34;100.00
27984;BME280;15317;50.360;8.726;2022-11-10T19:24:23;100813.06;;;7.29;100.00
27984;BME280;15317;50.360;8.726;2022-11-10T19:28:26;100800.97;;;7.22;100.00
27984;BME280;15317;50.360;8.726;2022-11-10T19:32:29;100806.56;;;7.19;100.00
27984;BME280;15317;50.360;8.726;2022-11-10T19:36:32;100809.59;;;7.14;100.00
27984;BME280;15317;50.360;8.726;2022-11-10T19:40:37;100822.56;;;7.09;100.00
27984;BME280;15317;50.360;8.726;2022-11-10T19:44:39;100825.38;;;7.08;100.00
27984;BME280;15317;50.360;8.726;2022-11-10T19:48:42;100835.59;;;7.03;100.00
27984;BME280;15317;50.360;8.726;2022-11-10T19:52:46;100826.22;;;6.96;100.00
27984;BME280;15317;50.360;8.726;2022-11-10T19:56:48;100832.78;;;6.92;100.00
27984;BME280;15317;50.360;8.726;2022-11-10T20:00:53;100849.31;;;6.87;100.00
27984;BME280;15317;50.360;8.726;2022-11-10T20:04:55;100843.22;;;6.84;100.00
27984;BME280;15317;50.360;8.726;2022-11-10T20:09:18;100838.03;;;6.81;100.00
27984;BME280;15317;50.360;8.726;2022-11-10T20:13:21;100838.47;;;6.74;100.00
27984;BME280;15317;50.360;8.726;2022-11-10T20:17:23;100831.50;;;6.70;100.00
27984;BME280;15317;50.360;8.726;2022-11-10T20:21:26;100833.47;;;6.68;100.00
27984;BME280;15317;50.360;8.726;2022-11-10T20:25:31;100833.66;;;6.65;100.00
27984;BME280;15317;50.360;8.726;2022-11-10T20:29:34;100828.69;;;6.59;100.00
27984;BME280;15317;50.360;8.726;2022-11-10T20:33:37;100837.84;;;6.57;100.00
27984;BME280;15317;50.360;8.726;2022-11-10T20:37:39;100837.94;;;6.55;100.00
27984;BME280;15317;50.360;8.726;2022-11-10T20:41:43;100845.47;;;6.50;100.00
27984;BME280;15317;50.360;8.726;2022-11-10T20:45:46;100865.31;;;6.49;100.00
27984;BME280;15317;50.360;8.726;2022-11-10T20:49:49;100859.06;;;6.49;100.00
27984;BME280;15317;50.360;8.726;2022-11-10T20:53:51;100859.28;;;6.46;100.00
27984;BME280;15317;50.360;8.726;2022-11-10T20:57:56;100856.97;;;6.40;100.00
27984;BME280;15317;50.360;8.726;2022-11-10T21:01:58;100868.28;;;6.32;100.00
27984;BME280;15317;50.360;8.726;2022-11-10T21:06:01;100868.69;;;6.26;100.00
27984;BME280;15317;50.360;8.726;2022-11-10T21:10:05;100865.59;;;6.18;100.00
27984;BME280;15317;50.360;8.726;2022-11-10T21:14:09;100871.09;;;6.16;100.00
27984;BME280;15317;50.360;8.726;2022-11-10T21:18:11;100873.88;;;6.15;100.00
27984;BME280;15317;50.360;8.726;2022-11-10T21:22:13;100871.31;;;6.13;100.00
27984;BME280;15317;50.360;8.726;2022-11-10T21:26:16;100864.25;;;6.11;100.00
27984;BME280;15317;50.360;8.726;2022-11-10T21:30:20;100870.53;;;6.11;100.00
27984;BME280;15317;50.360;8.726;2022-11-10T21:34:23;100870.13;;;6.03;100.00
27984;BME280;15317;50.360;8.726;2022-11-10T21:38:26;100860.53;;;5.99;100.00
27984;BME280;15317;50.360;8.726;2022-11-10T21:42:28;100872.75;;;5.90;100.00
27984;BME280;15317;50.360;8.726;2022-11-10T21:46:32;100872.31;;;5.82;100.00